Time;durP1;ratioP1;P1;durP2;ratioP2;P2;SDS_P1;SDS_P2;PMS_P1;PMS_P2;Temp;Humidity;BMP_temperature;BMP_pressure;BME280_temperature;BME280_humidity;BME280_pressure;Samples;Min_cycle;Max_cycle;Signal;HPM_P1;HPM_P2
2023/08/29 00:00:57;;;;;;;;;1.00;1.00;;;;;23.61;87.97;100761.81;2114526;27;46737;-53
2023/08/29 00:01:57;;;;;;;;;1.00;1.00;;;;;23.61;87.96;100758.22;2122734;27;46504;-55
2023/08/29 00:02:59;;;;;;;;;1.00;1.00;;;;;23.61;88.59;100750.97;2123301;27;46923;-53
2023/08/29 00:04:00;;;;;;;;;0.25;0.25;;;;;23.59;88.43;100752.94;2122113;27;46058;-53
2023/08/29 00:05:00;;;;;;;;;2.00;2.00;;;;;23.59;88.51;100755.63;2114581;27;46515;-53
2023/08/29 00:06:02;;;;;;;;;1.00;1.00;;;;;23.59;88.53;100765.63;2123343;27;46356;-52
2023/08/29 00:07:02;;;;;;;;;1.00;1.00;;;;;23.58;88.52;100766.59;2123419;27;46749;-50
2023/08/29 00:08:02;;;;;;;;;1.00;1.00;;;;;23.58;88.72;100763.88;2114429;27;45164;-52
2023/08/29 00:09:03;;;;;;;;;1.33;1.33;;;;;23.58;88.52;100766.59;2114230;27;45917;-55
2023/08/29 00:10:04;;;;;;;;;1.00;1.00;;;;;23.45;88.49;100758.50;2123161;27;46722;-54
2023/08/29 00:11:05;;;;;;;;;1.00;1.00;;;;;23.38;89.73;100762.66;2122991;27;46869;-53
2023/08/29 00:12:05;;;;;;;;;1.00;1.00;;;;;23.37;89.98;100763.59;2121888;27;46572;-53
2023/08/29 00:13:06;;;;;;;;;2.00;2.00;;;;;23.35;90.14;100758.31;2116680;27;46242;-53
2023/08/29 00:14:06;;;;;;;;;1.00;1.00;;;;;23.35;90.33;100765.56;2114394;27;46326;-54
2023/08/29 00:15:08;;;;;;;;;2.00;2.00;;;;;23.36;90.53;100764.59;2109448;27;45451;-54
2023/08/29 00:16:08;;;;;;;;;2.00;2.00;;;;;23.36;90.38;100759.16;2097100;28;46328;-53
2023/08/29 00:17:08;;;;;;;;;2.00;2.00;;;;;23.37;90.32;100764.47;2105322;27;46250;-54
2023/08/29 00:18:09;;;;;;;;;2.00;2.00;;;;;23.35;90.48;100752.88;2122957;27;46255;-53
2023/08/29 00:19:09;;;;;;;;;3.00;2.00;;;;;23.35;90.63;100760.16;2123550;27;45540;-55
2023/08/29 00:20:13;;;;;;;;;2.00;2.00;;;;;23.35;90.56;100754.72;2118578;27;46069;-55
2023/08/29 00:21:13;;;;;;;;;2.00;2.00;;;;;23.33;90.61;100759.41;2122853;27;46796;-55
2023/08/29 00:22:14;;;;;;;;;3.00;1.00;;;;;23.33;90.61;100762.97;2123350;27;46915;-55
2023/08/29 00:23:15;;;;;;;;;2.00;2.00;;;;;23.30;90.64;100757.78;2123072;27;46660;-54
2023/08/29 00:24:15;;;;;;;;;1.67;1.67;;;;;23.29;90.78;100758.78;2123528;27;46838;-53
2023/08/29 00:25:15;;;;;;;;;0.67;0.33;;;;;23.27;90.89;100763.44;2122620;27;45272;-54
2023/08/29 00:26:16;;;;;;;;;1.00;1.00;;;;;23.27;90.84;100766.16;2123191;27;46531;-55
2023/08/29 00:27:16;;;;;;;;;3.00;2.00;;;;;23.27;91.24;100770.72;2123744;27;45695;-54
2023/08/29 00:28:16;;;;;;;;;1.67;1.67;;;;;23.27;91.48;100770.72;2122945;27;46369;-52
2023/08/29 00:29:17;;;;;;;;;0.00;0.00;;;;;23.25;91.20;100762.69;2123074;27;46108;-52
2023/08/29 00:30:17;;;;;;;;;2.00;2.00;;;;;23.26;91.72;100766.28;2112605;27;46367;-53
2023/08/29 00:31:17;;;;;;;;;2.33;1.00;;;;;23.27;91.50;100765.28;2114022;27;46466;-53
2023/08/29 00:32:18;;;;;;;;;1.00;1.00;;;;;23.27;91.44;100768.88;2123169;27;46828;-51
2023/08/29 00:33:18;;;;;;;;;3.67;3.67;;;;;23.27;91.45;100765.28;2123098;27;46167;-55
2023/08/29 00:34:18;;;;;;;;;1.67;1.00;;;;;23.27;91.16;100765.28;2122780;27;46283;-54
2023/08/29 00:35:19;;;;;;;;;2.33;2.00;;;;;23.27;91.07;100762.59;2114065;27;46208;-53
2023/08/29 00:36:19;;;;;;;;;2.00;2.00;;;;;23.25;91.70;100770.81;2114091;27;46421;-52
2023/08/29 00:37:19;;;;;;;;;3.00;3.00;;;;;23.26;91.38;100763.56;2113842;27;45395;-53
2023/08/29 00:38:20;;;;;;;;;2.33;2.00;;;;;23.26;91.72;100760.84;2114130;27;46481;-52
2023/08/29 00:39:20;;;;;;;;;2.00;2.00;;;;;23.27;91.79;100757.16;2114055;27;46684;-50
2023/08/29 00:40:21;;;;;;;;;1.67;1.67;;;;;23.27;91.95;100759.88;2114101;27;46530;-51
2023/08/29 00:41:21;;;;;;;;;2.00;2.00;;;;;23.26;91.64;100756.31;2118154;27;46701;-54
2023/08/29 00:42:22;;;;;;;;;3.00;2.00;;;;;23.27;92.10;100754.47;2122262;27;46234;-54
2023/08/29 00:43:22;;;;;;;;;2.33;2.00;;;;;23.27;92.03;100759.88;2116086;27;46847;-54
2023/08/29 00:44:23;;;;;;;;;3.33;3.33;;;;;23.27;92.24;100754.47;2112063;27;45701;-51
2023/08/29 00:45:24;;;;;;;;;3.00;3.00;;;;;23.27;92.32;100754.47;2122460;27;46419;-51
2023/08/29 00:46:26;;;;;;;;;1.50;1.50;;;;;23.27;92.47;100758.03;2122334;27;46431;-52
2023/08/29 00:47:27;;;;;;;;;1.25;1.25;;;;;23.27;91.95;100749.03;2122574;27;46744;-50
2023/08/29 00:48:29;;;;;;;;;3.25;3.25;;;;;23.26;92.19;100755.44;2123091;27;46647;-50
2023/08/29 00:49:30;;;;;;;;;2.25;2.25;;;;;23.25;91.86;100750.97;2122963;27;46324;-50
2023/08/29 00:50:30;;;;;;;;;3.00;1.00;;;;;23.24;92.30;100752.81;2121737;27;45762;-53
2023/08/29 00:51:31;;;;;;;;;2.33;2.33;;;;;23.23;92.47;100745.66;2120422;27;46570;-53
2023/08/29 00:52:31;;;;;;;;;2.00;2.00;;;;;23.23;92.01;100748.38;2104078;28;45742;-50
2023/08/29 00:53:32;;;;;;;;;2.00;2.00;;;;;23.24;92.67;100751.94;2105414;28;45631;-53
2023/08/29 00:54:33;;;;;;;;;2.50;2.50;;;;;23.22;92.29;100752.06;2122624;27;46319;-51
2023/08/29 00:55:36;;;;;;;;;2.00;2.00;;;;;23.22;92.33;100746.66;2120701;27;45394;-53
2023/08/29 00:56:37;;;;;;;;;1.75;1.75;;;;;23.23;92.45;100755.63;2122730;27;46255;-56
2023/08/29 00:57:37;;;;;;;;;3.00;3.00;;;;;23.21;92.40;100750.34;2122853;27;46818;-53
2023/08/29 00:58:39;;;;;;;;;1.33;1.00;;;;;23.20;92.49;100746.78;2122877;27;46617;-55
2023/08/29 00:59:40;;;;;;;;;3.00;1.00;;;;;23.20;92.47;100738.66;2122897;27;46978;-53
2023/08/29 01:00:41;;;;;;;;;2.00;2.00;;;;;23.22;92.44;100751.22;2113345;27;46403;-55
2023/08/29 01:01:43;;;;;;;;;2.25;2.25;;;;;23.21;92.81;100747.63;2113920;27;46301;-55
2023/08/29 01:02:44;;;;;;;;;3.00;3.00;;;;;23.22;92.60;100753.91;2120981;27;46447;-55
2023/08/29 01:03:44;;;;;;;;;2.67;2.67;;;;;23.20;92.81;100752.19;2123810;27;45752;-56
2023/08/29 01:04:45;;;;;;;;;2.00;2.00;;;;;23.21;92.89;100753.06;2123699;27;45655;-57
2023/08/29 01:05:45;;;;;;;;;2.00;2.00;;;;;23.20;92.87;100745.91;2122881;27;46521;-54
2023/08/29 01:06:46;;;;;;;;;3.00;2.00;;;;;23.19;92.76;100744.19;2121674;27;46765;-55
2023/08/29 01:07:52;;;;;;;;;3.00;3.00;;;;;23.18;93.10;100754.16;2123017;27;46575;-54
2023/08/29 01:08:53;;;;;;;;;4.25;4.25;;;;;23.16;92.99;100750.69;2115701;27;47273;-56
2023/08/29 01:09:53;;;;;;;;;3.00;3.00;;;;;23.16;92.88;100753.41;2106327;27;46215;-55
2023/08/29 01:10:54;;;;;;;;;3.00;3.00;;;;;23.15;93.20;100748.97;2120902;27;46675;-56
2023/08/29 01:12:02;;;;;;;;;3.67;3.67;;;;;23.13;93.15;100753.63;2122982;27;45691;-55
2023/08/29 01:13:18;;;;;;;;;2.00;2.00;;;;;23.13;93.75;100750.06;2122336;27;46257;-57
2023/08/29 01:14:32;;;;;;;;;2.00;2.00;;;;;23.13;93.66;100753.63;2115761;27;46307;-56
2023/08/29 01:15:33;;;;;;;;;2.50;2.50;;;;;23.12;93.61;100759.13;2118933;27;46515;-56
2023/08/29 01:16:40;;;;;;;;;3.50;2.00;;;;;23.13;93.68;100753.63;2123093;27;45794;-55
2023/08/29 01:17:56;;;;;;;;;2.00;2.00;;;;;23.13;93.62;100750.94;2121077;27;46607;-55
2023/08/29 01:18:59;;;;;;;;;3.00;3.00;;;;;23.11;94.02;100749.28;2117129;27;46035;-54
2023/08/29 01:20:01;;;;;;;;;2.25;2.25;;;;;23.10;94.17;100742.13;2114795;27;46276;-54
2023/08/29 01:21:25;;;;;;;;;1.25;1.25;;;;;23.10;94.15;100739.44;2122837;27;46535;-55
2023/08/29 01:22:43;;;;;;;;;1.75;1.75;;;;;23.09;93.85;100744.00;2119068;27;45779;-56
2023/08/29 01:23:54;;;;;;;;;4.00;2.50;;;;;23.09;94.33;100752.09;2122680;27;46602;-54
2023/08/29 01:25:09;;;;;;;;;2.00;2.00;;;;;23.07;94.40;100735.13;2123018;27;46013;-54
2023/08/29 01:26:13;;;;;;;;;3.50;3.50;;;;;;;;2122933;27;46806;-56
2023/08/29 01:27:14;;;;;;;;;3.00;2.25;;;;;23.07;94.47;100734.25;2116437;27;46595;-56
2023/08/29 01:28:15;;;;;;;;;4.00;2.50;;;;;23.06;94.61;100737.94;2114286;27;47142;-54
2023/08/29 01:29:16;;;;;;;;;3.00;2.00;;;;;23.05;94.77;100730.81;2114308;27;46636;-56
2023/08/29 01:30:17;;;;;;;;;2.33;2.00;;;;;23.05;94.99;100725.38;2113991;27;45645;-56
2023/08/29 01:31:19;;;;;;;;;1.00;1.00;;;;;23.04;94.82;100735.34;2114490;27;45491;-54
2023/08/29 01:32:19;;;;;;;;;2.00;2.00;;;;;23.04;94.96;100729.94;2114280;27;46559;-54
2023/08/29 01:33:20;;;;;;;;;2.33;2.33;;;;;23.03;94.86;100736.34;2118124;27;46248;-54
2023/08/29 01:34:20;;;;;;;;;3.00;3.00;;;;;23.01;95.19;100732.88;2122591;27;47208;-53
2023/08/29 01:35:22;;;;;;;;;3.00;3.00;;;;;23.02;95.41;100731.91;2122945;27;46046;-52
2023/08/29 01:36:26;;;;;;;;;2.50;2.50;;;;;23.02;95.32;100734.59;2122856;27;46360;-52
2023/08/29 01:37:26;;;;;;;;;3.50;3.50;;;;;22.99;95.28;100737.50;2123001;27;45975;-53
2023/08/29 01:38:27;;;;;;;;;3.00;3.00;;;;;22.99;95.53;100739.34;2122238;27;46824;-51
2023/08/29 01:39:28;;;;;;;;;3.33;3.33;;;;;22.98;95.65;100735.78;2123267;27;45058;-53
2023/08/29 01:40:29;;;;;;;;;1.50;1.50;;;;;22.99;95.78;100748.34;2122662;27;46693;-53
2023/08/29 01:41:29;;;;;;;;;3.67;3.67;;;;;22.98;96.03;100748.44;2122366;27;46639;-52
2023/08/29 01:42:29;;;;;;;;;2.00;2.00;;;;;22.97;95.71;100742.19;2122615;27;46624;-50
2023/08/29 01:43:30;;;;;;;;;2.33;2.33;;;;;22.97;96.03;100747.59;2122610;27;46743;-52
2023/08/29 01:44:30;;;;;;;;;2.33;2.33;;;;;22.94;95.94;100744.25;2122444;27;46448;-51
2023/08/29 01:45:30;;;;;;;;;3.00;3.00;;;;;22.91;96.00;100745.34;2122764;27;46508;-54
2023/08/29 01:46:31;;;;;;;;;2.33;2.33;;;;;22.87;96.26;100739.31;2120693;27;46235;-53
2023/08/29 01:47:31;;;;;;;;;3.00;3.00;;;;;22.86;96.69;100747.50;2122573;27;45748;-52
2023/08/29 01:48:32;;;;;;;;;3.00;3.00;;;;;22.81;96.82;100746.94;2122749;27;46044;-52
2023/08/29 01:49:34;;;;;;;;;3.00;2.67;;;;;22.79;97.05;100743.50;2122839;27;46272;-53
2023/08/29 01:50:36;;;;;;;;;3.50;3.50;;;;;22.77;97.59;100742.75;2122979;27;46075;-53
2023/08/29 01:51:37;;;;;;;;;2.00;2.00;;;;;22.84;97.19;100739.50;2122523;27;47061;-55
2023/08/29 01:52:37;;;;;;;;;4.00;3.00;;;;;22.80;97.15;100739.81;2122391;27;46387;-52
2023/08/29 01:53:38;;;;;;;;;2.33;2.33;;;;;22.77;97.79;100743.59;2122627;27;46200;-53
2023/08/29 01:54:39;;;;;;;;;3.25;3.00;;;;;22.79;97.68;100738.94;2119013;27;46886;-51
2023/08/29 01:55:40;;;;;;;;;4.00;4.00;;;;;22.78;97.66;100744.47;2106215;27;46244;-53
2023/08/29 01:56:42;;;;;;;;;2.50;2.50;;;;;22.81;98.11;100738.84;2113772;27;46360;-52
2023/08/29 01:57:44;;;;;;;;;1.50;1.50;;;;;22.75;97.63;100737.44;2122523;27;46746;-51
2023/08/29 01:58:46;;;;;;;;;3.00;3.00;;;;;22.74;98.37;100737.53;2122393;27;45644;-51
2023/08/29 01:59:46;;;;;;;;;2.00;2.00;;;;;22.81;97.97;100737.00;2122538;27;46737;-52
2023/08/29 02:00:47;;;;;;;;;4.00;3.33;;;;;22.81;97.93;100736.13;2122425;27;46286;-55
2023/08/29 02:01:48;;;;;;;;;3.00;3.00;;;;;22.83;97.91;100734.19;2120960;27;46562;-55
2023/08/29 02:02:49;;;;;;;;;2.00;1.00;;;;;22.84;97.85;100735.94;2122730;27;46687;-56
2023/08/29 02:03:49;;;;;;;;;2.00;2.00;;;;;22.85;97.94;100734.94;2122663;27;46869;-55
2023/08/29 02:04:49;;;;;;;;;2.00;2.00;;;;;22.86;97.71;100742.09;2122354;27;46735;-54
2023/08/29 02:05:50;;;;;;;;;2.67;2.67;;;;;22.85;97.86;100743.94;2122444;27;46279;-54
2023/08/29 02:06:50;;;;;;;;;4.33;2.33;;;;;22.82;97.83;100730.59;2103997;28;46503;-54
2023/08/29 02:07:51;;;;;;;;;2.33;2.33;;;;;22.84;98.02;100735.94;2104228;28;46222;-55
2023/08/29 02:08:51;;;;;;;;;4.00;2.00;;;;;22.83;98.35;100736.91;2118468;27;47021;-52
2023/08/29 02:09:51;;;;;;;;;2.00;2.00;;;;;22.83;97.97;100736.91;2113507;27;46721;-52
2023/08/29 02:10:52;;;;;;;;;5.00;3.00;;;;;22.82;98.19;100740.56;2122578;27;45882;-51
2023/08/29 02:11:53;;;;;;;;;3.25;3.25;;;;;22.80;98.37;100739.81;2122752;27;45647;-53
2023/08/29 02:12:53;;;;;;;;;2.00;2.00;;;;;22.80;98.52;100737.97;2121546;27;46507;-55
2023/08/29 02:13:53;;;;;;;;;2.00;2.00;;;;;22.80;98.67;100739.81;2104896;27;46674;-55
2023/08/29 02:14:54;;;;;;;;;3.67;3.67;;;;;22.78;98.68;100739.94;2109143;27;46634;-56
2023/08/29 02:15:54;;;;;;;;;2.67;2.33;;;;;22.77;98.97;100737.34;2103850;28;46180;-55
2023/08/29 02:16:55;;;;;;;;;2.00;2.00;;;;;22.76;98.82;100741.88;2104093;28;45609;-55
2023/08/29 02:17:56;;;;;;;;;4.00;4.00;;;;;22.75;98.58;100736.59;2102800;27;46561;-55
2023/08/29 02:18:57;;;;;;;;;2.00;2.00;;;;;22.84;98.72;100742.19;2105094;28;46932;-53
2023/08/29 02:19:57;;;;;;;;;2.00;2.00;;;;;22.89;98.31;100742.75;2104228;28;45298;-53
2023/08/29 02:20:57;;;;;;;;;3.00;3.00;;;;;22.90;98.22;100743.63;2104461;28;46805;-54
2023/08/29 02:21:58;;;;;;;;;2.00;2.00;;;;;22.90;98.11;100739.06;2104837;28;46106;-51
2023/08/29 02:22:58;;;;;;;;;3.00;3.00;;;;;22.90;97.90;100749.91;2104416;28;46176;-56
2023/08/29 02:23:59;;;;;;;;;3.00;3.00;;;;;22.90;98.13;100746.31;2089658;28;46659;-56
2023/08/29 02:25:02;;;;;;;;;2.50;1.75;;;;;22.89;98.15;100752.72;2089076;28;46441;-54
2023/08/29 02:26:03;;;;;;;;;1.50;1.50;;;;;22.87;98.10;100750.13;2104238;28;47068;-53
2023/08/29 02:27:04;;;;;;;;;2.00;2.00;;;;;22.90;98.21;100757.16;2104249;28;46778;-55
2023/08/29 02:28:05;;;;;;;;;2.00;2.00;;;;;22.89;98.15;100750.88;2104675;28;45936;-53
2023/08/29 02:29:05;;;;;;;;;3.00;3.00;;;;;22.90;98.16;100759.84;2079010;28;45442;-55
2023/08/29 02:30:06;;;;;;;;;5.00;5.00;;;;;22.87;98.16;100755.53;2078689;28;46740;-54
2023/08/29 02:31:10;;;;;;;;;3.50;3.50;;;;;22.88;98.01;100756.41;2104194;28;47229;-55
2023/08/29 02:32:10;;;;;;;;;7.00;4.75;;;;;22.87;97.86;100758.25;2103974;28;46932;-52
2023/08/29 02:33:10;;;;;;;;;4.33;4.33;;;;;22.86;98.15;100761.03;2104240;28;46264;-55
2023/08/29 02:34:11;;;;;;;;;3.00;3.00;;;;;22.84;98.18;100758.44;2103214;27;46651;-55
2023/08/29 02:35:11;;;;;;;;;3.00;3.00;;;;;22.84;98.30;100761.16;2104205;28;46567;-52
2023/08/29 02:36:12;;;;;;;;;3.33;3.33;;;;;22.84;98.63;100765.69;2095846;28;46540;-55
2023/08/29 02:37:14;;;;;;;;;3.50;3.50;;;;;22.83;98.41;100762.13;2088861;28;45678;-55
2023/08/29 02:38:15;;;;;;;;;2.75;2.75;;;;;22.80;98.35;100756.91;2104486;28;46804;-56
2023/08/29 02:39:15;;;;;;;;;2.00;2.00;;;;;22.84;98.55;100757.56;2104753;28;45737;-56
2023/08/29 02:40:15;;;;;;;;;4.00;4.00;;;;;22.84;98.39;100763.00;2103559;28;46218;-56
2023/08/29 02:41:16;;;;;;;;;3.00;3.00;;;;;22.83;98.51;100753.13;2103844;28;46590;-56
2023/08/29 02:42:16;;;;;;;;;5.00;5.00;;;;;22.82;98.56;100759.50;2103378;28;46401;-51
2023/08/29 02:43:16;;;;;;;;;3.00;3.00;;;;;22.83;98.73;100759.41;2105201;27;46372;-55
2023/08/29 02:44:17;;;;;;;;;4.00;4.00;;;;;22.84;98.58;100760.28;2102772;27;46862;-54
2023/08/29 02:45:17;;;;;;;;;3.00;3.00;;;;;22.84;98.71;100760.28;2104307;28;46501;-55
2023/08/29 02:46:17;;;;;;;;;2.67;2.67;;;;;22.85;98.87;100762.00;2104030;28;46787;-54
2023/08/29 02:47:18;;;;;;;;;3.67;3.67;;;;;22.84;98.78;100755.72;2106915;27;46270;-52
2023/08/29 02:48:18;;;;;;;;;3.33;3.33;;;;;22.83;98.69;100747.72;2115694;27;46095;-50
2023/08/29 02:49:18;;;;;;;;;4.00;4.00;;;;;22.82;99.08;100751.38;2114818;27;46208;-54
2023/08/29 02:50:19;;;;;;;;;3.00;3.00;;;;;22.82;98.70;100752.25;2113050;27;46116;-54
2023/08/29 02:51:19;;;;;;;;;4.00;4.00;;;;;22.82;99.30;100751.38;2116787;27;46659;-54
2023/08/29 02:52:19;;;;;;;;;3.33;3.33;;;;;22.82;98.90;100744.13;2122059;27;46504;-55
2023/08/29 02:53:20;;;;;;;;;4.00;4.00;;;;;22.81;99.29;100746.94;2122453;27;45075;-55
2023/08/29 02:54:21;;;;;;;;;6.00;6.00;;;;;22.79;99.64;100752.47;2118310;27;46824;-55
2023/08/29 02:55:21;;;;;;;;;4.67;4.67;;;;;22.76;99.36;100750.00;2122248;27;46461;-54
2023/08/29 02:56:21;;;;;;;;;3.00;3.00;;;;;22.75;99.42;100752.81;2119805;27;46666;-57
2023/08/29 02:57:22;;;;;;;;;3.67;3.67;;;;;22.74;99.76;100751.94;2121772;27;46780;-53
2023/08/29 02:58:22;;;;;;;;;7.00;5.00;;;;;22.74;99.78;100748.34;2122309;27;46438;-53
2023/08/29 02:59:22;;;;;;;;;5.00;5.00;;;;;22.72;99.78;100748.47;2121995;27;46392;-53
2023/08/29 03:00:23;;;;;;;;;4.67;4.67;;;;;22.73;99.91;100750.19;2120170;27;46285;-51
2023/08/29 03:01:23;;;;;;;;;3.33;3.33;;;;;22.73;100.00;100752.03;2121262;27;46621;-54
2023/08/29 03:02:23;;;;;;;;;4.00;4.00;;;;;22.74;100.00;100749.25;2121585;27;46550;-54
2023/08/29 03:03:23;;;;;;;;;5.00;4.00;;;;;22.74;99.91;100748.34;2113261;27;46594;-55
2023/08/29 03:04:24;;;;;;;;;4.67;4.33;;;;;22.73;100.00;100749.31;2119010;27;46540;-54
2023/08/29 03:05:24;;;;;;;;;3.00;3.00;;;;;22.72;100.00;100742.19;2122029;27;46381;-56
2023/08/29 03:06:24;;;;;;;;;3.00;3.00;;;;;22.74;100.00;100748.34;2120888;27;46143;-54
2023/08/29 03:07:25;;;;;;;;;3.33;3.33;;;;;22.73;100.00;100742.06;2117150;27;46246;-55
2023/08/29 03:08:26;;;;;;;;;4.25;4.25;;;;;22.73;100.00;100747.50;2122012;27;46287;-57
2023/08/29 03:09:28;;;;;;;;;3.00;3.00;;;;;22.70;100.00;100742.31;2115595;27;46734;-51
2023/08/29 03:10:30;;;;;;;;;3.00;3.00;;;;;22.70;100.00;100744.16;2115116;27;47136;-51
2023/08/29 03:11:30;;;;;;;;;5.25;4.25;;;;;22.69;100.00;100735.16;2112857;27;46882;-53
2023/08/29 03:12:30;;;;;;;;;3.00;3.00;;;;;22.71;100.00;100741.31;2112715;27;46494;-51
2023/08/29 03:13:31;;;;;;;;;6.33;4.67;;;;;22.72;100.00;100745.75;2121999;27;46524;-51
2023/08/29 03:14:32;;;;;;;;;5.00;5.00;;;;;22.71;100.00;100737.75;2121745;27;46403;-53
2023/08/29 03:15:33;;;;;;;;;4.00;3.00;;;;;22.71;100.00;100737.75;2112896;27;46377;-53
2023/08/29 03:16:33;;;;;;;;;6.50;5.25;;;;;22.71;100.00;100738.63;2113188;27;46315;-50
2023/08/29 03:17:34;;;;;;;;;6.00;6.00;;;;;22.71;100.00;100738.63;2120832;27;46746;-54
2023/08/29 03:18:34;;;;;;;;;5.33;5.00;;;;;22.71;100.00;100732.34;2112659;27;46366;-53
2023/08/29 03:19:34;;;;;;;;;5.00;3.33;;;;;22.68;100.00;100730.72;2104690;28;46097;-56
2023/08/29 03:20:39;;;;;;;;;6.00;5.00;;;;;22.70;100.00;100731.47;2112330;27;47132;-54
2023/08/29 03:21:39;;;;;;;;;5.00;5.00;;;;;22.69;100.00;100731.59;2121483;27;46980;-54
2023/08/29 03:22:40;;;;;;;;;4.67;4.33;;;;;22.67;100.00;100734.41;2121319;27;46208;-51
2023/08/29 03:23:40;;;;;;;;;4.00;4.00;;;;;22.72;100.00;100728.66;2120377;27;46403;-55
2023/08/29 03:24:45;;;;;;;;;5.00;5.00;;;;;22.73;100.00;100725.84;2120730;27;46841;-52
2023/08/29 03:25:46;;;;;;;;;3.25;3.25;;;;;22.73;100.00;100727.69;2121628;27;46560;-51
2023/08/29 03:26:46;;;;;;;;;6.00;3.00;;;;;22.72;100.00;100734.06;2122208;27;46736;-54
2023/08/29 03:27:47;;;;;;;;;4.67;4.67;;;;;22.72;100.00;100739.47;2122311;27;46421;-53
2023/08/29 03:28:48;;;;;;;;;5.00;4.00;;;;;22.73;100.00;100735.81;2121732;27;46603;-54
2023/08/29 03:29:51;;;;;;;;;4.25;4.00;;;;;22.72;100.00;100745.75;2121261;27;46353;-53
2023/08/29 03:30:52;;;;;;;;;5.75;4.75;;;;;22.73;100.00;100741.22;2121822;27;46646;-51
2023/08/29 03:31:52;;;;;;;;;4.33;4.33;;;;;22.71;100.00;100738.63;2121921;27;46324;-53
2023/08/29 03:32:52;;;;;;;;;3.67;3.67;;;;;22.72;100.00;100734.94;2121985;27;45821;-51
2023/08/29 03:33:52;;;;;;;;;4.00;4.00;;;;;22.74;100.00;100734.81;2121970;27;46481;-54
2023/08/29 03:34:54;;;;;;;;;5.67;5.00;;;;;22.73;100.00;100731.25;2117105;27;46225;-52
2023/08/29 03:35:58;;;;;;;;;5.25;5.25;;;;;22.70;100.00;100730.63;2122347;27;45320;-53
2023/08/29 03:36:58;;;;;;;;;6.75;4.50;;;;;22.69;100.00;100726.19;2112974;27;45178;-55
2023/08/29 03:37:59;;;;;;;;;6.33;6.33;;;;;22.68;100.00;100727.16;2112646;27;46318;-55
2023/08/29 03:38:59;;;;;;;;;5.00;5.00;;;;;22.68;100.00;100724.47;2094937;28;46732;-54
2023/08/29 03:40:00;;;;;;;;;3.00;3.00;;;;;22.66;100.00;100721.88;2094139;28;46906;-55
2023/08/29 03:41:00;;;;;;;;;5.33;5.33;;;;;22.66;100.00;100724.56;2121756;27;46480;-54
2023/08/29 03:42:00;;;;;;;;;7.33;6.33;;;;;22.66;100.00;100721.00;2121786;27;46194;-54
2023/08/29 03:43:01;;;;;;;;;6.67;5.00;;;;;22.65;100.00;100717.44;2112637;27;46989;-52
2023/08/29 03:44:01;;;;;;;;;6.33;6.00;;;;;22.67;100.00;100725.44;2115990;27;46318;-55
2023/08/29 03:45:02;;;;;;;;;4.67;3.00;;;;;22.66;100.00;100723.72;2120465;27;46628;-52
2023/08/29 03:46:05;;;;;;;;;3.50;3.50;;;;;22.66;100.00;100721.88;2121811;27;46507;-51
2023/08/29 03:47:05;;;;;;;;;5.75;5.75;;;;;22.65;100.00;100720.13;2122252;27;46114;-53
2023/08/29 03:48:06;;;;;;;;;7.67;6.67;;;;;22.65;100.00;100716.56;2115823;27;46410;-54
2023/08/29 03:49:06;;;;;;;;;7.33;5.00;;;;;22.63;100.00;100719.38;2114132;27;46390;-54
2023/08/29 03:50:07;;;;;;;;;4.67;4.67;;;;;22.65;100.00;100719.28;2121963;27;46253;-56
2023/08/29 03:51:07;;;;;;;;;4.00;4.00;;;;;22.66;100.00;100721.00;2121310;27;46160;-54
2023/08/29 03:52:07;;;;;;;;;5.00;5.00;;;;;22.65;100.00;100717.44;2122340;27;45313;-55
2023/08/29 03:53:08;;;;;;;;;21.25;19.75;;;;;22.66;100.00;100718.31;2114102;27;46617;-54
2023/08/29 03:54:09;;;;;;;;;62.50;50.00;;;;;22.66;100.00;100721.00;2115578;27;46352;-53
2023/08/29 03:55:09;;;;;;;;;63.00;50.75;;;;;22.67;100.00;100720.03;2120718;27;46324;-54
2023/08/29 03:56:10;;;;;;;;;44.00;36.00;;;;;22.66;100.00;100726.41;2127540;27;46224;-53
2023/08/29 03:57:10;;;;;;;;;36.25;33.00;;;;;22.64;100.00;100725.66;2124703;27;46278;-54
2023/08/29 03:58:10;;;;;;;;;27.25;27.25;;;;;22.63;100.00;100721.22;2121727;27;46406;-54
2023/08/29 03:59:11;;;;;;;;;18.50;17.25;;;;;22.65;100.00;100727.41;2122124;27;46400;-53
2023/08/29 04:00:13;;;;;;;;;9.75;9.75;;;;;22.64;100.00;100726.53;2110603;27;46248;-53
2023/08/29 04:01:14;;;;;;;;;4.50;4.50;;;;;22.65;100.00;100717.44;2111120;27;47111;-51
2023/08/29 04:02:14;;;;;;;;;5.67;5.00;;;;;22.65;100.00;100721.97;2115623;27;46377;-53
2023/08/29 04:03:14;;;;;;;;;6.33;6.33;;;;;22.63;100.00;100715.81;2113372;27;46533;-53
2023/08/29 04:04:15;;;;;;;;;5.33;5.33;;;;;22.63;100.00;100718.53;2118919;27;46218;-55
2023/08/29 04:05:17;;;;;;;;;5.33;5.33;;;;;22.64;100.00;100717.56;2119415;27;46341;-51
2023/08/29 04:06:20;;;;;;;;;8.25;7.25;;;;;22.63;100.00;100719.38;2113804;27;45679;-50
2023/08/29 04:07:21;;;;;;;;;5.00;5.00;;;;;22.62;100.00;100723.06;2115708;27;45766;-51
2023/08/29 04:08:21;;;;;;;;;5.00;5.00;;;;;22.63;100.00;100716.69;2116434;27;46653;-53
2023/08/29 04:09:21;;;;;;;;;4.00;4.00;;;;;22.63;100.00;100715.81;2121649;27;46359;-55
2023/08/29 04:10:22;;;;;;;;;4.00;3.67;;;;;22.62;100.00;100714.97;2121429;27;46618;-54
2023/08/29 04:11:22;;;;;;;;;5.00;5.00;;;;;22.63;100.00;100710.41;2120134;27;46640;-53
2023/08/29 04:12:22;;;;;;;;;4.00;4.00;;;;;22.64;100.00;100714.84;2121690;27;46491;-54
2023/08/29 04:13:23;;;;;;;;;6.00;5.00;;;;;22.65;100.00;100716.56;2121914;27;45876;-54
2023/08/29 04:14:23;;;;;;;;;5.00;5.00;;;;;22.64;100.00;100713.00;2122053;27;46191;-55
2023/08/29 04:15:24;;;;;;;;;7.67;6.33;;;;;22.63;100.00;100715.81;2122000;27;45446;-55
2023/08/29 04:16:24;;;;;;;;;5.00;5.00;;;;;22.60;100.00;100719.59;2122076;27;45428;-53
2023/08/29 04:17:24;;;;;;;;;5.00;5.00;;;;;22.57;100.00;100725.22;2121527;27;46506;-56
2023/08/29 04:18:25;;;;;;;;;4.00;4.00;;;;;22.58;100.00;100716.13;2118115;27;46316;-52
2023/08/29 04:19:25;;;;;;;;;6.00;6.00;;;;;22.59;100.00;100720.56;2112617;27;45969;-55
2023/08/29 04:20:26;;;;;;;;;4.67;4.67;;;;;22.59;100.00;100720.56;2115528;27;46301;-54
2023/08/29 04:21:26;;;;;;;;;4.67;4.67;;;;;22.57;100.00;100709.84;2122103;27;46185;-55
2023/08/29 04:22:27;;;;;;;;;6.33;5.00;;;;;22.56;100.00;100713.53;2121142;27;45572;-55
2023/08/29 04:23:28;;;;;;;;;6.50;6.00;;;;;22.57;100.00;100703.59;2121146;27;46140;-54
2023/08/29 04:24:29;;;;;;;;;8.67;7.00;;;;;22.59;100.00;100707.03;2121659;27;46314;-53
2023/08/29 04:25:30;;;;;;;;;6.25;6.25;;;;;22.57;100.00;100709.00;2121837;27;46942;-55
2023/08/29 04:26:30;;;;;;;;;7.75;7.75;;;;;22.58;100.00;100710.72;2121381;27;46554;-49
2023/08/29 04:27:31;;;;;;;;;7.33;6.00;;;;;22.57;100.00;100706.28;2114570;27;47008;-55
2023/08/29 04:28:31;;;;;;;;;5.67;5.00;;;;;22.54;100.00;100709.22;2120462;27;46564;-54
2023/08/29 04:29:31;;;;;;;;;8.33;8.33;;;;;22.57;100.00;100707.16;2121371;27;46483;-54
2023/08/29 04:30:32;;;;;;;;;9.33;8.33;;;;;22.59;100.00;100712.44;2119303;27;46741;-52
2023/08/29 04:31:32;;;;;;;;;6.33;6.33;;;;;22.58;100.00;100713.44;2104805;27;46443;-52
2023/08/29 04:32:36;;;;;;;;;11.00;8.67;;;;;22.58;100.00;100711.59;2112733;27;46455;-53
2023/08/29 04:33:37;;;;;;;;;6.50;5.75;;;;;22.60;100.00;100716.88;2121431;27;46353;-54
2023/08/29 04:34:38;;;;;;;;;7.00;7.00;;;;;22.60;100.00;100706.06;2121528;27;46612;-52
2023/08/29 04:35:38;;;;;;;;;9.67;9.67;;;;;22.62;100.00;100709.56;2121638;27;46300;-55
2023/08/29 04:36:38;;;;;;;;;8.00;8.00;;;;;22.64;100.00;100704.03;2121530;27;46551;-54
2023/08/29 04:37:38;;;;;;;;;9.00;9.00;;;;;22.63;100.00;100707.72;2121460;27;46924;-53
2023/08/29 04:38:41;;;;;;;;;9.00;9.00;;;;;22.64;100.00;100706.72;2121975;27;46071;-55
2023/08/29 04:39:42;;;;;;;;;8.50;8.50;;;;;22.67;100.00;100704.66;2119109;27;46447;-55
2023/08/29 04:40:43;;;;;;;;;7.00;6.33;;;;;22.67;100.00;100707.38;2113407;27;46233;-54
2023/08/29 04:41:43;;;;;;;;;6.33;6.33;;;;;22.67;100.00;100704.66;2119836;27;47401;-51
2023/08/29 04:42:47;;;;;;;;;6.25;6.25;;;;;22.70;100.00;100711.69;2122408;27;45455;-55
2023/08/29 04:43:47;;;;;;;;;9.25;9.25;;;;;22.70;100.00;100704.44;2121055;27;46543;-52